createdAt,value
2022-09-09T00:02:20.501Z,98187.47
2022-09-09T00:04:53.954Z,98181.97
2022-09-09T00:07:27.324Z,98183.63
2022-09-09T00:10:01.615Z,98180.34
2022-09-09T00:12:34.476Z,98184.69
2022-09-09T00:15:04.642Z,98182.47
2022-09-09T00:17:35.596Z,98177.38
2022-09-09T00:20:06.550Z,98169.50
2022-09-09T00:22:36.044Z,98173.25
2022-09-09T00:25:11.223Z,98167.75
2022-09-09T00:27:42.324Z,98171.09
2022-09-09T00:30:17.158Z,98173.00
2022-09-09T00:32:46.084Z,98168.94
2022-09-09T00:35:18.968Z,98174.16
2022-09-09T00:37:52.926Z,98173.97
2022-09-09T00:40:24.636Z,98168.16
2022-09-09T00:42:56.291Z,98180.81
2022-09-09T00:45:36.245Z,98193.16
2022-09-09T00:48:11.916Z,98199.69
2022-09-09T00:50:45.617Z,98191.69
2022-09-09T00:53:21.654Z,98203.50
2022-09-09T00:55:51.223Z,98206.84
2022-09-09T00:58:19.210Z,98206.09
2022-09-09T01:00:49.981Z,98211.56
2022-09-09T01:03:25.854Z,98202.38
2022-09-09T01:06:01.863Z,98187.47
2022-09-09T01:08:55.061Z,98171.75
2022-09-09T01:11:24.026Z,98176.16
2022-09-09T01:14:07.726Z,98173.88
2022-09-09T01:16:36.806Z,98176.50
2022-09-09T01:19:05.020Z,98176.34
2022-09-09T01:21:39.073Z,98176.31
2022-09-09T01:24:17.873Z,98186.13
2022-09-09T01:27:01.147Z,98181.75
2022-09-09T01:29:29.361Z,98186.75
2022-09-09T01:31:58.570Z,98202.78
2022-09-09T01:34:28.943Z,98217.53
2022-09-09T01:37:00.147Z,98213.63
2022-09-09T01:39:29.230Z,98220.88
2022-09-09T01:42:05.648Z,98212.63
2022-09-09T01:44:34.666Z,98217.94
2022-09-09T01:47:03.623Z,98214.16
2022-09-09T01:49:33.571Z,98208.56
2022-09-09T01:52:07.699Z,98216.59
2022-09-09T01:54:38.938Z,98216.41
2022-09-09T01:57:18.288Z,98231.28
2022-09-09T01:59:52.388Z,98242.00
2022-09-09T02:02:21.882Z,98226.00
2022-09-09T02:05:10.505Z,98216.75
2022-09-09T02:07:41.890Z,98182.44
2022-09-09T02:10:25.729Z,98165.34
2022-09-09T02:13:09.147Z,98171.56
2022-09-09T02:15:43.915Z,98188.00
2022-09-09T02:18:14.679Z,98207.53
2022-09-09T02:20:44.034Z,98206.75
2022-09-09T02:23:13.331Z,98213.72
2022-09-09T02:25:47.267Z,98212.53
2022-09-09T02:28:26.357Z,98205.81
2022-09-09T02:30:57.153Z,98198.50
2022-09-09T02:33:36.442Z,98196.69
2022-09-09T02:36:07.641Z,98206.63
2022-09-09T02:38:38.480Z,98195.75
2022-09-09T02:41:11.174Z,98193.25
2022-09-09T02:43:41.321Z,98204.28
2022-09-09T02:46:22.002Z,98202.31
2022-09-09T02:48:55.511Z,98210.44
2022-09-09T02:51:32.180Z,98190.41
2022-09-09T02:54:04.299Z,98179.72
2022-09-09T02:56:34.698Z,98176.50
2022-09-09T02:59:06.427Z,98164.06
2022-09-09T03:01:36.651Z,98183.25
2022-09-09T03:04:06.354Z,98186.34
2022-09-09T03:06:34.621Z,98173.78
2022-09-09T03:09:12.578Z,98170.22
2022-09-09T03:11:40.596Z,98173.50
2022-09-09T03:14:12.284Z,98174.56
2022-09-09T03:16:40.374Z,98174.81
2022-09-09T03:19:08.713Z,98171.97
2022-09-09T03:21:36.827Z,98173.69
2022-09-09T03:24:05.246Z,98170.94
2022-09-09T03:26:33.711Z,98160.94
2022-09-09T03:29:02.352Z,98158.28
2022-09-09T03:31:33.775Z,98159.16
2022-09-09T03:34:01.771Z,98154.44
2022-09-09T03:36:32.507Z,98149.06
2022-09-09T03:39:01.260Z,98152.97
2022-09-09T03:41:31.646Z,98160.19
2022-09-09T03:44:01.680Z,98154.44
2022-09-09T03:46:34.798Z,98156.81
2022-09-09T03:49:03.302Z,98165.28
2022-09-09T03:51:37.698Z,98172.81
2022-09-09T03:54:09.152Z,98174.16
2022-09-09T03:56:37.584Z,98179.41
2022-09-09T03:59:05.840Z,98172.81
2022-09-09T04:01:35.260Z,98165.28
2022-09-09T04:04:03.641Z,98157.56
2022-09-09T04:06:31.931Z,98148.59
2022-09-09T04:09:00.544Z,98155.16
2022-09-09T04:11:28.616Z,98161.94
2022-09-09T04:13:59.436Z,98153.06
2022-09-09T04:16:27.641Z,98149.06
2022-09-09T04:18:57.335Z,98162.66
2022-09-09T04:21:27.462Z,98162.78
2022-09-09T04:23:55.667Z,98170.34
2022-09-09T04:26:23.678Z,98160.75
2022-09-09T04:28:51.701Z,98169.47
2022-09-09T04:31:23.747Z,98179.63
2022-09-09T04:33:54.872Z,98185.53
2022-09-09T04:36:24.714Z,98185.94
2022-09-09T04:38:56.695Z,98169.16
2022-09-09T04:41:24.718Z,98162.84
2022-09-09T04:43:55.429Z,98161.28
2022-09-09T04:46:24.630Z,98164.00
2022-09-09T04:48:53.586Z,98167.16
2022-09-09T04:51:22.629Z,98184.97
2022-09-09T04:53:54.869Z,98166.63
2022-09-09T04:56:22.907Z,98177.78
2022-09-09T04:58:57.467Z,98173.13
2022-09-09T05:01:34.179Z,98169.19
2022-09-09T05:04:05.115Z,98180.75
2022-09-09T05:06:36.191Z,98192.34
2022-09-09T05:09:07.035Z,98189.75
2022-09-09T05:11:36.949Z,98191.78
2022-09-09T05:14:22.309Z,98195.19
2022-09-09T05:16:52.642Z,98196.34
2022-09-09T05:19:20.855Z,98199.81
2022-09-09T05:21:51.996Z,98191.72
2022-09-09T05:24:26.491Z,98190.38
2022-09-09T05:27:00.806Z,98197.09
2022-09-09T05:29:33.327Z,98194.47
2022-09-09T05:32:02.100Z,98206.44
2022-09-09T05:34:30.143Z,98207.84
2022-09-09T05:36:59.282Z,98205.13
2022-09-09T05:39:29.539Z,98195.31
2022-09-09T05:41:58.063Z,98197.78
2022-09-09T05:44:28.545Z,98192.66
2022-09-09T05:46:56.968Z,98207.03
2022-09-09T05:49:25.123Z,98199.19
2022-09-09T05:51:53.872Z,98201.34
2022-09-09T05:54:25.210Z,98204.91
2022-09-09T05:56:55.824Z,98203.78
2022-09-09T05:59:26.223Z,98202.19
2022-09-09T06:01:57.208Z,98201.38
2022-09-09T06:04:31.571Z,98205.44
2022-09-09T06:07:03.709Z,98203.56
2022-09-09T06:09:32.259Z,98196.19
2022-09-09T06:12:01.863Z,98191.84
2022-09-09T06:14:33.171Z,98199.47
2022-09-09T06:17:03.254Z,98195.13
2022-09-09T06:19:32.171Z,98198.13
2022-09-09T06:22:01.386Z,98206.56
2022-09-09T06:24:32.491Z,98196.75
2022-09-09T06:27:03.074Z,98201.94
2022-09-09T06:29:35.053Z,98205.47
2022-09-09T06:32:04.402Z,98209.84
2022-09-09T06:34:32.889Z,98212.31
2022-09-09T06:37:04.337Z,98216.38
2022-09-09T06:39:38.486Z,98218.59
2022-09-09T06:42:10.531Z,98210.94
2022-09-09T06:44:56.606Z,98205.72
2022-09-09T06:47:37.302Z,98219.03
2022-09-09T06:50:06.368Z,98212.97
2022-09-09T06:52:36.015Z,98206.44
2022-09-09T06:55:05.524Z,98201.47
2022-09-09T06:57:37.623Z,98208.47
2022-09-09T07:00:10.863Z,98198.91
2022-09-09T07:02:40.004Z,98215.13
2022-09-09T07:05:09.596Z,98215.16
2022-09-09T07:07:38.630Z,98218.88
2022-09-09T07:10:08.468Z,98224.06
2022-09-09T07:12:39.480Z,98210.94
2022-09-09T07:15:11.799Z,98217.06
2022-09-09T07:17:43.077Z,98212.03
2022-09-09T07:20:11.275Z,98213.88
2022-09-09T07:22:39.506Z,98209.50
2022-09-09T07:25:08.181Z,98216.53
2022-09-09T07:27:38.728Z,98214.38
2022-09-09T07:30:08.327Z,98194.25
2022-09-09T07:32:39.086Z,98188.50
2022-09-09T07:35:07.860Z,98192.66
2022-09-09T07:37:38.046Z,98195.88
2022-09-09T07:40:06.815Z,98196.44
2022-09-09T07:42:34.875Z,98208.44
2022-09-09T07:45:04.293Z,98214.59
2022-09-09T07:47:32.559Z,98215.56
2022-09-09T07:50:00.564Z,98209.78
2022-09-09T07:52:32.584Z,98206.63
2022-09-09T07:55:05.509Z,98204.34
2022-09-09T07:57:34.686Z,98217.78
2022-09-09T08:00:07.427Z,98210.78
2022-09-09T08:02:43.298Z,98219.59
2022-09-09T08:05:12.479Z,98209.94
2022-09-09T08:07:42.811Z,98201.00
2022-09-09T08:10:11.617Z,98192.22
2022-09-09T08:12:51.615Z,98191.34
2022-09-09T08:15:35.326Z,98204.00
2022-09-09T08:18:03.602Z,98202.03
2022-09-09T08:20:32.053Z,98204.41
2022-09-09T08:23:00.134Z,98212.34
2022-09-09T08:25:28.142Z,98216.75
2022-09-09T08:27:56.811Z,98207.38
2022-09-09T08:30:25.432Z,98212.59
2022-09-09T08:32:54.824Z,98207.84
2022-09-09T08:35:24.082Z,98202.59
2022-09-09T08:37:55.435Z,98196.09
2022-09-09T08:40:28.511Z,98198.13
2022-09-09T08:43:00.941Z,98197.16
2022-09-09T08:45:35.818Z,98185.88
2022-09-09T08:48:19.446Z,98188.44
2022-09-09T08:50:53.048Z,98192.50
2022-09-09T08:53:31.207Z,98193.03
2022-09-09T08:56:00.697Z,98193.50
2022-09-09T08:58:45.778Z,98191.16
2022-09-09T09:01:24.438Z,98195.94
2022-09-09T09:04:01.006Z,98197.91
2022-09-09T09:06:38.428Z,98195.50
2022-09-09T09:09:13.301Z,98178.59
2022-09-09T09:11:47.966Z,98181.22
2022-09-09T09:14:22.198Z,98187.50
2022-09-09T09:16:52.882Z,98178.47
2022-09-09T09:19:24.057Z,98186.78
2022-09-09T09:21:57.062Z,98173.00
2022-09-09T09:24:29.091Z,98170.56
2022-09-09T09:26:58.337Z,98170.16
2022-09-09T09:29:27.200Z,98183.63
2022-09-09T09:31:57.293Z,98172.75
2022-09-09T09:34:30.031Z,98185.16
2022-09-09T09:37:02.644Z,98172.56
2022-09-09T09:42:25.781Z,98172.47
2022-09-09T09:44:56.734Z,98178.78
2022-09-09T09:47:25.299Z,98182.13
2022-09-09T09:50:20.178Z,98180.56
2022-09-09T09:52:58.324Z,98191.09
2022-09-09T09:55:28.486Z,98206.00
2022-09-09T09:58:02.991Z,98243.03
2022-09-09T10:00:31.328Z,98250.19
2022-09-09T10:03:17.887Z,98271.00
2022-09-09T10:05:47.827Z,98367.75
2022-09-09T10:08:18.574Z,98329.13
2022-09-09T10:10:58.566Z,98289.81
2022-09-09T10:13:33.365Z,98260.47
2022-09-09T10:16:11.586Z,98220.25
2022-09-09T10:18:56.967Z,98211.28
2022-09-09T10:21:33.605Z,98224.66
2022-09-09T10:24:14.210Z,98236.59
2022-09-09T10:26:45.691Z,98235.44
2022-09-09T10:29:22.328Z,98228.13
2022-09-09T10:31:56.298Z,98210.53
2022-09-09T10:34:33.884Z,98212.63
2022-09-09T10:37:02.087Z,98209.66
2022-09-09T10:39:40.698Z,98193.03
2022-09-09T10:42:13.598Z,98184.53
2022-09-09T10:44:49.389Z,98206.78
2022-09-09T10:47:32.360Z,98191.94
2022-09-09T10:50:09.375Z,98194.34
2022-09-09T10:52:41.566Z,98203.31
2022-09-09T10:55:13.687Z,98206.66
2022-09-09T10:57:44.045Z,98219.59
2022-09-09T11:00:17.367Z,98216.47
2022-09-09T11:02:45.412Z,98220.66
2022-09-09T11:05:18.291Z,98211.47
2022-09-09T11:07:51.186Z,98232.78
2022-09-09T11:10:26.172Z,98239.00
2022-09-09T11:12:56.612Z,98250.97
2022-09-09T11:15:27.414Z,98259.41
2022-09-09T11:17:58.473Z,98259.44
2022-09-09T11:20:27.562Z,98265.41
2022-09-09T11:22:58.451Z,98267.66
2022-09-09T11:25:31.008Z,98274.00
2022-09-09T11:28:08.581Z,98286.81
2022-09-09T11:30:57.529Z,98280.53
2022-09-09T11:33:33.319Z,98291.19
2022-09-09T11:36:14.131Z,98293.09
2022-09-09T11:38:46.145Z,98289.00
2022-09-09T11:41:21.086Z,98283.53
2022-09-09T11:43:53.949Z,98272.03
2022-09-09T11:46:23.203Z,98282.19
2022-09-09T11:49:01.325Z,98278.38
2022-09-09T11:51:31.248Z,98269.00
2022-09-09T11:54:04.516Z,98257.56
2022-09-09T11:56:45.389Z,98228.75
2022-09-09T11:59:22.702Z,98227.94
2022-09-09T12:01:52.706Z,98208.59
2022-09-09T12:04:29.928Z,98203.53
2022-09-09T12:07:03.532Z,98189.66
2022-09-09T12:09:34.447Z,98199.63
2022-09-09T12:12:25.028Z,98184.31
2022-09-09T12:15:01.253Z,98175.78
2022-09-09T12:17:34.301Z,98188.19
2022-09-09T12:20:05.200Z,98172.88
2022-09-09T12:22:37.334Z,98173.53
2022-09-09T12:25:12.585Z,98178.50
2022-09-09T12:27:46.688Z,98181.19
2022-09-09T12:30:17.129Z,98174.56
2022-09-09T12:32:45.510Z,98167.34
2022-09-09T12:35:15.102Z,98158.53
2022-09-09T12:37:44.614Z,98163.84
2022-09-09T12:40:21.597Z,98150.16
2022-09-09T12:42:51.227Z,98162.88
2022-09-09T12:45:21.184Z,98150.78
2022-09-09T12:47:51.331Z,98155.06
2022-09-09T12:50:21.040Z,98168.97
2022-09-09T12:52:49.854Z,98150.25
2022-09-09T12:55:20.339Z,98153.78
2022-09-09T12:57:50.407Z,98150.56
2022-09-09T13:00:21.758Z,98154.47
2022-09-09T13:02:52.213Z,98147.31
2022-09-09T13:05:22.118Z,98138.19
2022-09-09T13:07:50.293Z,98133.44
2022-09-09T13:10:36.324Z,98143.19
2022-09-09T13:13:15.894Z,98139.16
2022-09-09T13:15:51.822Z,98139.41
2022-09-09T13:18:22.465Z,98133.16
2022-09-09T13:20:51.563Z,98138.63
2022-09-09T13:23:21.973Z,98137.03
2022-09-09T13:25:57.628Z,98133.78
2022-09-09T13:28:28.672Z,98126.44
2022-09-09T13:31:08.056Z,98115.53
2022-09-09T13:33:38.266Z,98118.59
2022-09-09T13:36:32.567Z,98121.91
2022-09-09T13:39:01.827Z,98118.28
2022-09-09T13:41:34.326Z,98108.38
2022-09-09T13:44:03.130Z,98108.88
2022-09-09T13:46:37.223Z,98104.72
2022-09-09T13:49:20.753Z,98111.31
2022-09-09T13:51:49.966Z,98105.19
2022-09-09T13:54:19.069Z,98102.06
2022-09-09T13:56:47.473Z,98102.69
2022-09-09T13:59:16.980Z,98105.22
2022-09-09T14:01:50.037Z,98104.50
2022-09-09T14:04:18.084Z,98112.94
2022-09-09T14:06:46.202Z,98116.81
2022-09-09T14:09:16.670Z,98105.97
2022-09-09T14:11:45.004Z,98100.41
2022-09-09T14:14:13.004Z,98101.78
2022-09-09T14:16:41.117Z,98101.91
2022-09-09T14:19:11.215Z,98096.72
2022-09-09T14:21:41.672Z,98099.94
2022-09-09T14:24:09.763Z,98104.31
2022-09-09T14:26:39.791Z,98102.63
2022-09-09T14:29:08.353Z,98095.25
2022-09-09T14:31:36.403Z,98101.06
2022-09-09T14:34:07.021Z,98099.53
2022-09-09T14:36:38.550Z,98104.31
2022-09-09T14:39:06.864Z,98107.38
2022-09-09T14:41:34.935Z,98122.91
2022-09-09T14:44:05.358Z,98132.97
2022-09-09T14:46:34.465Z,98119.88
2022-09-09T14:49:05.578Z,98142.41
2022-09-09T14:51:33.632Z,98143.28
2022-09-09T14:54:03.047Z,98145.34
2022-09-09T14:56:31.996Z,98142.50
2022-09-09T14:59:01.669Z,98142.13
2022-09-09T15:01:30.449Z,98140.19
2022-09-09T15:03:59.884Z,98140.88
2022-09-09T15:06:28.670Z,98139.28
2022-09-09T15:08:58.659Z,98134.53
2022-09-09T15:11:29.434Z,98131.44
2022-09-09T15:14:00.031Z,98126.56
2022-09-09T15:16:29.737Z,98121.94
2022-09-09T15:18:58.634Z,98131.59
2022-09-09T15:21:27.615Z,98120.72
2022-09-09T15:23:55.852Z,98123.28
2022-09-09T15:26:24.258Z,98114.03
2022-09-09T15:28:53.696Z,98118.47
2022-09-09T15:31:22.176Z,98113.06
2022-09-09T15:33:50.529Z,98109.19
2022-09-09T15:36:19.491Z,98105.44
2022-09-09T15:38:47.504Z,98113.09
2022-09-09T15:41:15.855Z,98118.22
2022-09-09T15:43:45.679Z,98119.63
2022-09-09T15:46:29.059Z,98122.88
2022-09-09T15:48:57.596Z,98122.88
2022-09-09T15:51:43.993Z,98140.53
2022-09-09T15:54:13.886Z,98156.44
2022-09-09T15:56:42.411Z,98218.84
2022-09-09T15:59:10.559Z,98218.31
2022-09-09T16:01:40.751Z,98235.78
2022-09-09T16:04:08.752Z,98239.06
2022-09-09T16:06:37.321Z,98258.72
2022-09-09T16:09:07.873Z,98265.53
2022-09-09T16:11:38.259Z,98282.38
2022-09-09T16:14:07.338Z,98289.31
2022-09-09T16:16:36.876Z,98291.41
2022-09-09T16:19:07.421Z,98291.69
2022-09-09T16:21:36.153Z,98289.97
2022-09-09T16:24:05.609Z,98296.78
2022-09-09T16:26:34.978Z,98287.66
2022-09-09T16:29:03.643Z,98290.75
2022-09-09T16:31:32.898Z,98292.84
2022-09-09T16:34:01.103Z,98288.38
2022-09-09T16:36:31.749Z,98295.28
2022-09-09T16:39:00.622Z,98282.50
2022-09-09T16:41:31.763Z,98274.28
2022-09-09T16:44:04.579Z,98264.47
2022-09-09T16:46:33.471Z,98263.44
2022-09-09T16:49:02.511Z,98265.34
2022-09-09T16:51:32.706Z,98252.84
2022-09-09T16:54:01.325Z,98250.59
2022-09-09T16:56:30.871Z,98246.31
2022-09-09T16:58:59.807Z,98253.16
2022-09-09T17:01:28.727Z,98242.84
2022-09-09T17:04:00.819Z,98246.41
2022-09-09T17:06:29.915Z,98250.75
2022-09-09T17:09:00.576Z,98246.94
2022-09-09T17:11:29.465Z,98253.78
2022-09-09T17:13:58.936Z,98244.75
2022-09-09T17:16:28.538Z,98258.91
2022-09-09T17:18:57.283Z,98256.72
2022-09-09T17:21:26.271Z,98268.19
2022-09-09T17:23:54.989Z,98272.44
2022-09-09T17:26:27.524Z,98280.53
2022-09-09T17:28:59.286Z,98288.31
2022-09-09T17:31:28.795Z,98284.69
2022-09-09T17:33:57.203Z,98280.69
2022-09-09T17:36:26.519Z,98277.66
2022-09-09T17:38:55.234Z,98268.06
2022-09-09T17:41:27.384Z,98271.28
2022-09-09T17:43:55.925Z,98266.91
2022-09-09T17:46:27.386Z,98276.44
2022-09-09T17:48:57.960Z,98281.41
2022-09-09T17:51:28.812Z,98293.41
2022-09-09T17:53:59.276Z,98284.06
2022-09-09T17:56:31.392Z,98282.03
2022-09-09T17:59:00.186Z,98290.94
2022-09-09T18:01:29.285Z,98298.78
2022-09-09T18:03:57.952Z,98285.16
2022-09-09T18:06:28.191Z,98287.41
2022-09-09T18:08:57.428Z,98281.69
2022-09-09T18:11:26.783Z,98288.50
2022-09-09T18:13:57.578Z,98288.50
2022-09-09T18:16:26.746Z,98286.56
2022-09-09T18:18:55.761Z,98290.06
2022-09-09T18:21:25.836Z,98293.34
2022-09-09T18:23:53.817Z,98300.69
2022-09-09T18:26:24.194Z,98303.31
2022-09-09T18:28:53.467Z,98326.56
2022-09-09T18:31:24.387Z,98294.94
2022-09-09T18:33:53.290Z,98313.03
2022-09-09T18:36:22.643Z,98316.38
2022-09-09T18:38:50.647Z,98309.69
2022-09-09T18:41:25.444Z,98330.28
2022-09-09T18:43:55.137Z,98335.81
2022-09-09T18:46:25.113Z,98330.84
2022-09-09T18:48:53.156Z,98327.22
2022-09-09T18:51:23.147Z,98345.34
2022-09-09T18:53:52.423Z,98353.25
2022-09-09T18:56:20.591Z,98348.56
2022-09-09T18:58:48.571Z,98351.13
2022-09-09T19:01:16.662Z,98349.28
2022-09-09T19:03:46.161Z,98337.84
2022-09-09T19:06:15.006Z,98324.28
2022-09-09T19:08:43.752Z,98347.22
2022-09-09T19:11:13.020Z,98368.19
2022-09-09T19:13:41.188Z,98374.13
2022-09-09T19:16:09.973Z,98376.34
2022-09-09T19:18:38.636Z,98355.06
2022-09-09T19:21:13.221Z,98340.63
2022-09-09T19:23:41.854Z,98359.44
2022-09-09T19:26:11.053Z,98346.81
2022-09-09T19:28:42.528Z,98340.66
2022-09-09T19:31:10.927Z,98336.19
2022-09-09T19:33:39.044Z,98342.34
2022-09-09T19:36:09.245Z,98339.53
2022-09-09T19:38:38.793Z,98326.50
2022-09-09T19:41:08.309Z,98308.59
2022-09-09T19:43:36.378Z,98334.16
2022-09-09T19:46:06.567Z,98324.59
2022-09-09T19:48:36.151Z,98339.56
2022-09-09T19:51:04.997Z,98356.66
2022-09-09T19:53:35.852Z,98356.41
2022-09-09T19:56:05.731Z,98359.53
2022-09-09T19:58:34.755Z,98368.84
2022-09-09T20:01:06.684Z,98382.34
2022-09-09T20:03:35.521Z,98378.28
2022-09-09T20:06:03.474Z,98348.78
2022-09-09T20:08:31.484Z,98355.66
2022-09-09T20:10:59.560Z,98340.47
2022-09-09T20:13:29.811Z,98331.19
2022-09-09T20:16:00.350Z,98334.84
2022-09-09T20:18:31.119Z,98346.66
2022-09-09T20:21:00.674Z,98346.72
2022-09-09T20:23:29.295Z,98360.00
2022-09-09T20:26:01.703Z,98369.00
2022-09-09T20:28:31.089Z,98379.28
2022-09-09T20:31:03.886Z,98360.34
2022-09-09T20:33:32.177Z,98371.16
2022-09-09T20:36:05.032Z,98363.31
2022-09-09T20:38:34.100Z,98367.53
2022-09-09T20:41:04.565Z,98380.97
2022-09-09T20:43:33.954Z,98379.81
2022-09-09T20:46:02.670Z,98386.31
2022-09-09T20:48:33.098Z,98403.78
2022-09-09T20:51:05.275Z,98418.41
2022-09-09T20:53:33.567Z,98414.19
2022-09-09T20:56:04.484Z,98425.50
2022-09-09T20:58:34.448Z,98417.53
2022-09-09T21:01:02.871Z,98414.72
2022-09-09T21:03:32.111Z,98418.44
2022-09-09T21:06:00.431Z,98413.91
2022-09-09T21:08:30.027Z,98422.41
2022-09-09T21:10:58.787Z,98427.19
2022-09-09T21:13:28.014Z,98425.63
2022-09-09T21:15:57.470Z,98440.84
2022-09-09T21:18:27.325Z,98440.38
2022-09-09T21:20:55.316Z,98451.31
2022-09-09T21:23:23.771Z,98451.16
2022-09-09T21:25:52.416Z,98447.97
2022-09-09T21:28:20.781Z,98454.69
2022-09-09T21:30:50.384Z,98453.47
2022-09-09T21:33:20.783Z,98445.31
2022-09-09T21:35:48.984Z,98440.31
2022-09-09T21:38:18.194Z,98453.22
2022-09-09T21:40:46.341Z,98437.09
2022-09-09T21:43:15.126Z,98437.75
2022-09-09T21:45:43.307Z,98434.03
2022-09-09T21:48:12.234Z,98439.75
2022-09-09T21:50:42.512Z,98446.34
2022-09-09T21:53:11.149Z,98454.22
2022-09-09T21:55:40.842Z,98457.03
2022-09-09T22:02:41.873Z,98440.31
2022-09-09T22:05:11.416Z,98446.63
2022-09-09T22:07:39.987Z,98433.19
2022-09-09T22:10:09.989Z,98438.91
2022-09-09T22:12:38.740Z,98434.03
2022-09-09T22:15:08.117Z,98431.00
2022-09-09T22:17:36.526Z,98430.50
2022-09-09T22:20:07.636Z,98437.56
2022-09-09T22:22:35.987Z,98454.16
2022-09-09T22:25:04.360Z,98452.94
2022-09-09T22:27:35.460Z,98460.25
2022-09-09T22:30:06.836Z,98499.53
2022-09-09T22:32:35.170Z,98502.59
2022-09-09T22:35:03.899Z,98493.56
2022-09-09T22:37:33.546Z,98502.56
2022-09-09T22:40:02.149Z,98495.84
2022-09-09T22:42:31.343Z,98511.00
2022-09-09T22:45:00.106Z,98503.44
2022-09-09T22:47:28.353Z,98495.91
2022-09-09T22:49:56.962Z,98501.44
2022-09-09T22:52:25.311Z,98493.72
2022-09-09T22:54:54.951Z,98507.38
2022-09-09T22:57:23.310Z,98503.75
2022-09-09T22:59:51.566Z,98503.00
2022-09-09T23:02:20.692Z,98488.19
2022-09-09T23:04:49.225Z,98471.50
2022-09-09T23:07:19.868Z,98491.63
2022-09-09T23:09:48.763Z,98485.75
2022-09-09T23:12:20.589Z,98482.88
2022-09-09T23:14:48.970Z,98488.56
2022-09-09T23:17:18.292Z,98476.00
2022-09-09T23:19:48.150Z,98476.63
2022-09-09T23:22:16.431Z,98464.19
2022-09-09T23:24:44.706Z,98474.34
2022-09-09T23:27:13.013Z,98476.25
2022-09-09T23:29:42.941Z,98480.84
2022-09-09T23:32:11.240Z,98485.28
2022-09-09T23:34:40.472Z,98494.16
2022-09-09T23:37:11.042Z,98489.13
2022-09-09T23:39:40.186Z,98491.63
2022-09-09T23:42:08.965Z,98488.00
2022-09-09T23:44:38.252Z,98489.09
2022-09-09T23:47:09.334Z,98477.16
2022-09-09T23:49:39.089Z,98466.47
2022-09-09T23:52:07.417Z,98460.41
2022-09-09T23:54:36.084Z,98436.66
2022-09-09T23:57:05.017Z,98450.47
2022-09-09T23:59:34.877Z,98449.00
